Fruitland, Texas
Current Conditions -  °F | °C
As of 9:15 PM on Saturday 22 Nov 2014 (Local Time) from K0F2 Reporting Station
Clear Clear  
Wind Chill: 55°   Ceiling: Unl
Heat Index: 55°   Visibility: 10mi
Dew Point: 55°   Wind: 9mph
Humidity: 98%   Direction: 150°SSE
Pressure: 29.73"   Gusts: NA
Location:  33.5529°N, 97.8448°W
Report Text: K0F2 230315Z AUTO 15008KT 10SM CLR 13/13 A2973 RMK AO2 T01280125
Loading
Personal Weather Stations






























Interactive Weather Map New forecast layout! Learn more

10-Day Weather Forecast

Advertisements
Track Severe Weather on mobile